sensor_id;sensor_type;location;lat;lon;timestamp;P1;durP1;ratioP1;P2;durP2;ratioP2
23565;SDS011;22140;48.988;8.544;2022-09-17T00:02:03;5.67;;;1.00;;
23565;SDS011;22140;48.988;8.544;2022-09-17T00:07:07;5.03;;;0.80;;
23565;SDS011;22140;48.988;8.544;2022-09-17T00:12:09;3.57;;;0.90;;
23565;SDS011;22140;48.988;8.544;2022-09-17T00:17:13;2.70;;;0.70;;
23565;SDS011;22140;48.988;8.544;2022-09-17T00:22:16;5.93;;;0.90;;
23565;SDS011;22140;48.988;8.544;2022-09-17T00:27:18;4.83;;;0.83;;
23565;SDS011;22140;48.988;8.544;2022-09-17T00:32:19;3.47;;;0.90;;
23565;SDS011;22140;48.988;8.544;2022-09-17T00:37:21;4.45;;;0.85;;
23565;SDS011;22140;48.988;8.544;2022-09-17T00:42:22;4.83;;;0.70;;
23565;SDS011;22140;48.988;8.544;2022-09-17T00:47:31;4.90;;;0.93;;
23565;SDS011;22140;48.988;8.544;2022-09-17T00:52:39;3.88;;;0.85;;
23565;SDS011;22140;48.988;8.544;2022-09-17T00:57:41;5.93;;;1.00;;
23565;SDS011;22140;48.988;8.544;2022-09-17T01:02:43;5.20;;;0.90;;
23565;SDS011;22140;48.988;8.544;2022-09-17T01:33:29;5.05;;;0.88;;
23565;SDS011;22140;48.988;8.544;2022-09-17T01:38:44;5.18;;;1.02;;
23565;SDS011;22140;48.988;8.544;2022-09-17T01:43:52;6.07;;;0.83;;
23565;SDS011;22140;48.988;8.544;2022-09-17T01:48:57;5.53;;;0.93;;
23565;SDS011;22140;48.988;8.544;2022-09-17T01:54:01;5.27;;;0.90;;
23565;SDS011;22140;48.988;8.544;2022-09-17T02:04:14;6.22;;;0.98;;
23565;SDS011;22140;48.988;8.544;2022-09-17T02:09:21;4.70;;;0.80;;
23565;SDS011;22140;48.988;8.544;2022-09-17T02:14:26;4.43;;;0.90;;
23565;SDS011;22140;48.988;8.544;2022-09-17T02:19:29;5.05;;;0.80;;
23565;SDS011;22140;48.988;8.544;2022-09-17T02:29:59;4.37;;;0.90;;
23565;SDS011;22140;48.988;8.544;2022-09-17T02:35:01;4.75;;;0.95;;
23565;SDS011;22140;48.988;8.544;2022-09-17T02:40:03;4.67;;;0.87;;
23565;SDS011;22140;48.988;8.544;2022-09-17T02:45:11;4.13;;;0.87;;
23565;SDS011;22140;48.988;8.544;2022-09-17T03:01:03;7.57;;;0.90;;
23565;SDS011;22140;48.988;8.544;2022-09-17T03:06:06;6.10;;;0.95;;
23565;SDS011;22140;48.988;8.544;2022-09-17T03:11:09;5.00;;;0.97;;
23565;SDS011;22140;48.988;8.544;2022-09-17T03:16:12;3.55;;;0.80;;
23565;SDS011;22140;48.988;8.544;2022-09-17T03:21:14;4.95;;;1.02;;
23565;SDS011;22140;48.988;8.544;2022-09-17T03:26:15;3.33;;;0.80;;
23565;SDS011;22140;48.988;8.544;2022-09-17T03:31:17;5.43;;;1.00;;
23565;SDS011;22140;48.988;8.544;2022-09-17T03:36:18;7.10;;;1.20;;
23565;SDS011;22140;48.988;8.544;2022-09-17T03:41:20;4.25;;;1.00;;
23565;SDS011;22140;48.988;8.544;2022-09-17T03:46:21;11.55;;;1.20;;
23565;SDS011;22140;48.988;8.544;2022-09-17T03:51:23;6.77;;;1.00;;
23565;SDS011;22140;48.988;8.544;2022-09-17T03:56:24;7.40;;;1.08;;
23565;SDS011;22140;48.988;8.544;2022-09-17T04:01:27;6.10;;;1.20;;
23565;SDS011;22140;48.988;8.544;2022-09-17T04:06:28;4.97;;;1.10;;
23565;SDS011;22140;48.988;8.544;2022-09-17T04:11:30;7.05;;;1.13;;
23565;SDS011;22140;48.988;8.544;2022-09-17T04:16:31;5.70;;;1.03;;
23565;SDS011;22140;48.988;8.544;2022-09-17T04:21:32;7.50;;;1.17;;
23565;SDS011;22140;48.988;8.544;2022-09-17T04:26:34;8.50;;;1.33;;
23565;SDS011;22140;48.988;8.544;2022-09-17T04:31:35;9.60;;;1.50;;
23565;SDS011;22140;48.988;8.544;2022-09-17T04:36:38;8.35;;;1.52;;
23565;SDS011;22140;48.988;8.544;2022-09-17T04:41:40;5.30;;;1.00;;
23565;SDS011;22140;48.988;8.544;2022-09-17T04:46:41;4.87;;;1.20;;
23565;SDS011;22140;48.988;8.544;2022-09-17T04:51:43;8.65;;;1.33;;
23565;SDS011;22140;48.988;8.544;2022-09-17T04:56:44;5.93;;;1.50;;
23565;SDS011;22140;48.988;8.544;2022-09-17T05:01:46;5.22;;;1.15;;
23565;SDS011;22140;48.988;8.544;2022-09-17T05:06:47;5.55;;;1.25;;
23565;SDS011;22140;48.988;8.544;2022-09-17T05:11:48;7.73;;;1.47;;
23565;SDS011;22140;48.988;8.544;2022-09-17T05:16:50;5.05;;;1.40;;
23565;SDS011;22140;48.988;8.544;2022-09-17T05:21:51;8.23;;;1.65;;
23565;SDS011;22140;48.988;8.544;2022-09-17T05:26:53;12.40;;;2.03;;
23565;SDS011;22140;48.988;8.544;2022-09-17T05:31:54;8.60;;;1.55;;
23565;SDS011;22140;48.988;8.544;2022-09-17T05:36:55;7.53;;;1.50;;
23565;SDS011;22140;48.988;8.544;2022-09-17T05:41:57;9.13;;;1.87;;
23565;SDS011;22140;48.988;8.544;2022-09-17T05:46:59;9.65;;;1.70;;
23565;SDS011;22140;48.988;8.544;2022-09-17T05:52:00;8.93;;;1.57;;
23565;SDS011;22140;48.988;8.544;2022-09-17T05:57:03;5.17;;;1.40;;
23565;SDS011;22140;48.988;8.544;2022-09-17T06:02:06;5.68;;;1.70;;
23565;SDS011;22140;48.988;8.544;2022-09-17T06:07:07;7.80;;;1.90;;
23565;SDS011;22140;48.988;8.544;2022-09-17T06:12:09;5.95;;;1.50;;
23565;SDS011;22140;48.988;8.544;2022-09-17T06:17:10;7.25;;;1.67;;
23565;SDS011;22140;48.988;8.544;2022-09-17T06:22:12;8.00;;;1.93;;
23565;SDS011;22140;48.988;8.544;2022-09-17T06:27:13;9.55;;;1.90;;
23565;SDS011;22140;48.988;8.544;2022-09-17T06:32:15;6.72;;;2.17;;
23565;SDS011;22140;48.988;8.544;2022-09-17T06:37:17;6.50;;;1.83;;
23565;SDS011;22140;48.988;8.544;2022-09-17T06:42:18;6.53;;;1.90;;
23565;SDS011;22140;48.988;8.544;2022-09-17T06:47:19;7.43;;;2.33;;
23565;SDS011;22140;48.988;8.544;2022-09-17T06:52:21;7.10;;;2.58;;
23565;SDS011;22140;48.988;8.544;2022-09-17T06:57:22;6.80;;;2.70;;
23565;SDS011;22140;48.988;8.544;2022-09-17T07:02:23;7.23;;;2.40;;
23565;SDS011;22140;48.988;8.544;2022-09-17T07:07:25;9.95;;;3.25;;
23565;SDS011;22140;48.988;8.544;2022-09-17T07:12:26;7.30;;;2.40;;
23565;SDS011;22140;48.988;8.544;2022-09-17T07:17:28;8.57;;;2.40;;
23565;SDS011;22140;48.988;8.544;2022-09-17T07:22:30;10.18;;;2.80;;
23565;SDS011;22140;48.988;8.544;2022-09-17T07:27:31;8.73;;;2.57;;
23565;SDS011;22140;48.988;8.544;2022-09-17T07:32:32;8.40;;;2.60;;
23565;SDS011;22140;48.988;8.544;2022-09-17T07:37:34;7.80;;;2.60;;
23565;SDS011;22140;48.988;8.544;2022-09-17T07:42:35;9.20;;;2.73;;
23565;SDS011;22140;48.988;8.544;2022-09-17T07:47:37;8.57;;;2.50;;
23565;SDS011;22140;48.988;8.544;2022-09-17T07:52:44;12.05;;;2.88;;
23565;SDS011;22140;48.988;8.544;2022-09-17T07:57:49;7.77;;;2.47;;
23565;SDS011;22140;48.988;8.544;2022-09-17T08:02:53;7.63;;;2.30;;
23565;SDS011;22140;48.988;8.544;2022-09-17T08:07:55;6.32;;;2.00;;
23565;SDS011;22140;48.988;8.544;2022-09-17T08:12:57;8.43;;;2.00;;
23565;SDS011;22140;48.988;8.544;2022-09-17T08:17:58;7.97;;;2.57;;
23565;SDS011;22140;48.988;8.544;2022-09-17T08:23:00;8.38;;;2.45;;
23565;SDS011;22140;48.988;8.544;2022-09-17T08:28:01;9.27;;;2.50;;
23565;SDS011;22140;48.988;8.544;2022-09-17T08:33:03;8.70;;;2.30;;
23565;SDS011;22140;48.988;8.544;2022-09-17T08:38:04;8.15;;;2.78;;
23565;SDS011;22140;48.988;8.544;2022-09-17T08:43:07;7.27;;;2.27;;
23565;SDS011;22140;48.988;8.544;2022-09-17T08:48:11;11.50;;;2.70;;
23565;SDS011;22140;48.988;8.544;2022-09-17T08:58:41;13.35;;;2.40;;
23565;SDS011;22140;48.988;8.544;2022-09-17T09:09:04;12.75;;;2.60;;
23565;SDS011;22140;48.988;8.544;2022-09-17T09:19:19;7.20;;;1.80;;
23565;SDS011;22140;48.988;8.544;2022-09-17T09:24:24;8.75;;;1.95;;
23565;SDS011;22140;48.988;8.544;2022-09-17T09:34:30;8.17;;;2.10;;
23565;SDS011;22140;48.988;8.544;2022-09-17T09:39:33;6.47;;;1.60;;
23565;SDS011;22140;48.988;8.544;2022-09-17T09:44:44;9.55;;;1.83;;
23565;SDS011;22140;48.988;8.544;2022-09-17T10:00:39;7.70;;;1.77;;
23565;SDS011;22140;48.988;8.544;2022-09-17T10:11:04;8.63;;;1.90;;
23565;SDS011;22140;48.988;8.544;2022-09-17T10:16:22;11.70;;;2.15;;
23565;SDS011;22140;48.988;8.544;2022-09-17T10:21:29;9.45;;;1.50;;
23565;SDS011;22140;48.988;8.544;2022-09-17T10:26:32;7.90;;;1.60;;
23565;SDS011;22140;48.988;8.544;2022-09-17T10:31:50;15.77;;;1.92;;
23565;SDS011;22140;48.988;8.544;2022-09-17T10:36:53;6.47;;;1.83;;
23565;SDS011;22140;48.988;8.544;2022-09-17T10:41:57;8.27;;;1.83;;
23565;SDS011;22140;48.988;8.544;2022-09-17T10:47:05;7.20;;;1.50;;
23565;SDS011;22140;48.988;8.544;2022-09-17T10:52:09;7.82;;;1.70;;
23565;SDS011;22140;48.988;8.544;2022-09-17T10:57:12;6.25;;;1.50;;
23565;SDS011;22140;48.988;8.544;2022-09-17T11:17:30;7.70;;;1.60;;
23565;SDS011;22140;48.988;8.544;2022-09-17T11:22:55;7.55;;;1.80;;
23565;SDS011;22140;48.988;8.544;2022-09-17T11:33:10;6.57;;;1.70;;
23565;SDS011;22140;48.988;8.544;2022-09-17T11:38:28;8.33;;;1.63;;
23565;SDS011;22140;48.988;8.544;2022-09-17T11:43:33;6.00;;;1.75;;
23565;SDS011;22140;48.988;8.544;2022-09-17T12:04:00;10.77;;;1.73;;
23565;SDS011;22140;48.988;8.544;2022-09-17T12:09:04;15.87;;;2.20;;
23565;SDS011;22140;48.988;8.544;2022-09-17T12:19:33;7.65;;;1.35;;
23565;SDS011;22140;48.988;8.544;2022-09-17T12:24:36;5.33;;;1.10;;
23565;SDS011;22140;48.988;8.544;2022-09-17T12:55:46;7.00;;;1.30;;
23565;SDS011;22140;48.988;8.544;2022-09-17T13:01:13;5.70;;;1.10;;
23565;SDS011;22140;48.988;8.544;2022-09-17T13:21:52;4.32;;;1.33;;
23565;SDS011;22140;48.988;8.544;2022-09-17T13:26:57;4.78;;;1.33;;
23565;SDS011;22140;48.988;8.544;2022-09-17T13:32:00;5.87;;;1.30;;
23565;SDS011;22140;48.988;8.544;2022-09-17T13:37:02;5.80;;;1.10;;
23565;SDS011;22140;48.988;8.544;2022-09-17T13:47:18;4.47;;;1.00;;
23565;SDS011;22140;48.988;8.544;2022-09-17T13:52:55;5.23;;;1.17;;
23565;SDS011;22140;48.988;8.544;2022-09-17T13:57:49;6.70;;;1.40;;
23565;SDS011;22140;48.988;8.544;2022-09-17T14:02:51;5.15;;;1.40;;
23565;SDS011;22140;48.988;8.544;2022-09-17T14:08:04;5.37;;;1.20;;
23565;SDS011;22140;48.988;8.544;2022-09-17T14:13:23;5.22;;;1.25;;
23565;SDS011;22140;48.988;8.544;2022-09-17T14:23:29;5.90;;;1.20;;
23565;SDS011;22140;48.988;8.544;2022-09-17T14:28:33;7.78;;;1.45;;
23565;SDS011;22140;48.988;8.544;2022-09-17T14:33:37;6.60;;;1.40;;
23565;SDS011;22140;48.988;8.544;2022-09-17T14:39:16;4.90;;;1.30;;
23565;SDS011;22140;48.988;8.544;2022-09-17T14:44:18;6.77;;;1.10;;
23565;SDS011;22140;48.988;8.544;2022-09-17T14:49:21;5.30;;;1.20;;
23565;SDS011;22140;48.988;8.544;2022-09-17T14:54:29;7.03;;;1.50;;
23565;SDS011;22140;48.988;8.544;2022-09-17T14:59:49;9.37;;;1.57;;
23565;SDS011;22140;48.988;8.544;2022-09-17T15:04:51;5.95;;;1.35;;
23565;SDS011;22140;48.988;8.544;2022-09-17T15:09:52;6.90;;;1.10;;
23565;SDS011;22140;48.988;8.544;2022-09-17T15:14:55;4.53;;;1.10;;
23565;SDS011;22140;48.988;8.544;2022-09-17T15:19:57;5.05;;;1.10;;
23565;SDS011;22140;48.988;8.544;2022-09-17T15:30:05;9.23;;;1.20;;
23565;SDS011;22140;48.988;8.544;2022-09-17T15:35:17;5.32;;;1.15;;
23565;SDS011;22140;48.988;8.544;2022-09-17T15:40:37;6.18;;;1.20;;
23565;SDS011;22140;48.988;8.544;2022-09-17T15:45:39;7.93;;;1.30;;
23565;SDS011;22140;48.988;8.544;2022-09-17T15:50:49;5.88;;;1.35;;
23565;SDS011;22140;48.988;8.544;2022-09-17T16:01:23;8.27;;;1.20;;
23565;SDS011;22140;48.988;8.544;2022-09-17T16:11:30;6.43;;;1.30;;
23565;SDS011;22140;48.988;8.544;2022-09-17T16:16:33;7.90;;;1.40;;
23565;SDS011;22140;48.988;8.544;2022-09-17T16:21:34;6.20;;;1.33;;
23565;SDS011;22140;48.988;8.544;2022-09-17T16:26:36;6.47;;;1.33;;
23565;SDS011;22140;48.988;8.544;2022-09-17T16:31:38;5.55;;;1.50;;
23565;SDS011;22140;48.988;8.544;2022-09-17T16:36:39;7.10;;;1.50;;
23565;SDS011;22140;48.988;8.544;2022-09-17T16:41:40;8.30;;;1.45;;
23565;SDS011;22140;48.988;8.544;2022-09-17T16:46:42;9.65;;;2.03;;
23565;SDS011;22140;48.988;8.544;2022-09-17T16:51:43;6.43;;;1.50;;
23565;SDS011;22140;48.988;8.544;2022-09-17T16:56:44;6.32;;;1.40;;
23565;SDS011;22140;48.988;8.544;2022-09-17T17:01:46;6.13;;;1.63;;
23565;SDS011;22140;48.988;8.544;2022-09-17T17:06:49;13.83;;;5.10;;
23565;SDS011;22140;48.988;8.544;2022-09-17T17:11:50;10.50;;;3.72;;
23565;SDS011;22140;48.988;8.544;2022-09-17T17:16:52;11.07;;;2.65;;
23565;SDS011;22140;48.988;8.544;2022-09-17T17:21:53;11.83;;;2.33;;
23565;SDS011;22140;48.988;8.544;2022-09-17T17:26:54;9.13;;;1.70;;
23565;SDS011;22140;48.988;8.544;2022-09-17T17:31:55;6.60;;;1.65;;
23565;SDS011;22140;48.988;8.544;2022-09-17T17:36:57;9.00;;;1.80;;
23565;SDS011;22140;48.988;8.544;2022-09-17T17:41:58;8.02;;;1.90;;
23565;SDS011;22140;48.988;8.544;2022-09-17T17:47:00;6.97;;;1.27;;
23565;SDS011;22140;48.988;8.544;2022-09-17T17:52:09;6.90;;;1.67;;
23565;SDS011;22140;48.988;8.544;2022-09-17T17:57:10;7.00;;;1.50;;
23565;SDS011;22140;48.988;8.544;2022-09-17T18:02:12;7.70;;;2.00;;
23565;SDS011;22140;48.988;8.544;2022-09-17T18:07:13;5.93;;;1.30;;
23565;SDS011;22140;48.988;8.544;2022-09-17T18:12:15;6.03;;;1.65;;
23565;SDS011;22140;48.988;8.544;2022-09-17T18:17:16;7.80;;;1.73;;
23565;SDS011;22140;48.988;8.544;2022-09-17T18:22:18;7.97;;;1.60;;
23565;SDS011;22140;48.988;8.544;2022-09-17T18:27:19;6.85;;;1.55;;
23565;SDS011;22140;48.988;8.544;2022-09-17T18:32:20;5.00;;;0.95;;
23565;SDS011;22140;48.988;8.544;2022-09-17T18:37:22;4.27;;;0.80;;
23565;SDS011;22140;48.988;8.544;2022-09-17T18:42:23;4.80;;;1.10;;
23565;SDS011;22140;48.988;8.544;2022-09-17T18:47:25;4.93;;;1.13;;
23565;SDS011;22140;48.988;8.544;2022-09-17T18:52:27;4.50;;;0.70;;
23565;SDS011;22140;48.988;8.544;2022-09-17T18:57:28;5.78;;;0.90;;
23565;SDS011;22140;48.988;8.544;2022-09-17T19:02:31;5.70;;;1.00;;
23565;SDS011;22140;48.988;8.544;2022-09-17T19:07:35;3.80;;;0.80;;
23565;SDS011;22140;48.988;8.544;2022-09-17T19:12:36;4.07;;;0.90;;
23565;SDS011;22140;48.988;8.544;2022-09-17T19:17:38;4.47;;;1.00;;
23565;SDS011;22140;48.988;8.544;2022-09-17T19:22:39;4.50;;;0.83;;
23565;SDS011;22140;48.988;8.544;2022-09-17T19:27:42;5.05;;;0.80;;
23565;SDS011;22140;48.988;8.544;2022-09-17T19:32:44;4.67;;;1.03;;
23565;SDS011;22140;48.988;8.544;2022-09-17T19:37:46;5.22;;;1.30;;
23565;SDS011;22140;48.988;8.544;2022-09-17T19:42:52;5.15;;;1.00;;
23565;SDS011;22140;48.988;8.544;2022-09-17T19:47:54;5.60;;;1.10;;
23565;SDS011;22140;48.988;8.544;2022-09-17T19:53:01;9.27;;;1.35;;
23565;SDS011;22140;48.988;8.544;2022-09-17T19:58:03;7.10;;;1.27;;
23565;SDS011;22140;48.988;8.544;2022-09-17T20:03:05;4.57;;;1.07;;
23565;SDS011;22140;48.988;8.544;2022-09-17T20:08:06;3.88;;;0.88;;
23565;SDS011;22140;48.988;8.544;2022-09-17T20:13:08;4.67;;;0.80;;
23565;SDS011;22140;48.988;8.544;2022-09-17T20:18:09;4.97;;;1.00;;
23565;SDS011;22140;48.988;8.544;2022-09-17T20:23:10;11.02;;;1.63;;
23565;SDS011;22140;48.988;8.544;2022-09-17T20:28:12;6.73;;;3.00;;
23565;SDS011;22140;48.988;8.544;2022-09-17T20:33:13;5.38;;;1.30;;
23565;SDS011;22140;48.988;8.544;2022-09-17T20:38:15;6.70;;;1.20;;
23565;SDS011;22140;48.988;8.544;2022-09-17T20:43:37;5.47;;;1.27;;
23565;SDS011;22140;48.988;8.544;2022-09-17T20:48:39;9.60;;;1.83;;
23565;SDS011;22140;48.988;8.544;2022-09-17T20:53:41;5.27;;;1.10;;
23565;SDS011;22140;48.988;8.544;2022-09-17T20:58:44;5.87;;;1.10;;
23565;SDS011;22140;48.988;8.544;2022-09-17T21:03:50;4.35;;;0.80;;
23565;SDS011;22140;48.988;8.544;2022-09-17T21:08:52;3.83;;;0.70;;
23565;SDS011;22140;48.988;8.544;2022-09-17T21:13:53;4.57;;;0.70;;
23565;SDS011;22140;48.988;8.544;2022-09-17T21:18:59;5.22;;;0.80;;
23565;SDS011;22140;48.988;8.544;2022-09-17T21:24:02;4.63;;;0.87;;
23565;SDS011;22140;48.988;8.544;2022-09-17T21:29:04;5.35;;;1.00;;
23565;SDS011;22140;48.988;8.544;2022-09-17T21:34:07;4.57;;;0.95;;
23565;SDS011;22140;48.988;8.544;2022-09-17T21:39:11;2.73;;;0.60;;
23565;SDS011;22140;48.988;8.544;2022-09-17T21:44:13;4.10;;;0.82;;
23565;SDS011;22140;48.988;8.544;2022-09-17T21:49:15;5.00;;;0.90;;
23565;SDS011;22140;48.988;8.544;2022-09-17T21:54:17;5.20;;;0.80;;
23565;SDS011;22140;48.988;8.544;2022-09-17T21:59:19;5.30;;;0.90;;
23565;SDS011;22140;48.988;8.544;2022-09-17T22:04:20;4.40;;;0.90;;
23565;SDS011;22140;48.988;8.544;2022-09-17T22:09:26;6.33;;;1.00;;
23565;SDS011;22140;48.988;8.544;2022-09-17T22:14:30;8.90;;;1.23;;
23565;SDS011;22140;48.988;8.544;2022-09-17T22:19:32;5.30;;;1.00;;
23565;SDS011;22140;48.988;8.544;2022-09-17T22:24:34;5.75;;;1.10;;
23565;SDS011;22140;48.988;8.544;2022-09-17T22:29:35;4.65;;;0.95;;
23565;SDS011;22140;48.988;8.544;2022-09-17T22:34:37;6.53;;;1.07;;
23565;SDS011;22140;48.988;8.544;2022-09-17T22:39:38;10.52;;;1.05;;
23565;SDS011;22140;48.988;8.544;2022-09-17T22:44:40;4.60;;;0.90;;
23565;SDS011;22140;48.988;8.544;2022-09-17T22:49:41;5.33;;;0.90;;
23565;SDS011;22140;48.988;8.544;2022-09-17T22:54:43;5.55;;;0.85;;
23565;SDS011;22140;48.988;8.544;2022-09-17T22:59:44;10.10;;;1.10;;
23565;SDS011;22140;48.988;8.544;2022-09-17T23:04:45;6.83;;;1.00;;
23565;SDS011;22140;48.988;8.544;2022-09-17T23:09:47;5.82;;;0.98;;
23565;SDS011;22140;48.988;8.544;2022-09-17T23:14:49;6.93;;;0.97;;
23565;SDS011;22140;48.988;8.544;2022-09-17T23:19:50;6.83;;;1.10;;
23565;SDS011;22140;48.988;8.544;2022-09-17T23:24:52;5.90;;;0.80;;
23565;SDS011;22140;48.988;8.544;2022-09-17T23:29:54;6.87;;;0.97;;
23565;SDS011;22140;48.988;8.544;2022-09-17T23:34:55;7.47;;;0.93;;
23565;SDS011;22140;48.988;8.544;2022-09-17T23:39:57;5.00;;;0.98;;
23565;SDS011;22140;48.988;8.544;2022-09-17T23:44:58;5.70;;;0.80;;
23565;SDS011;22140;48.988;8.544;2022-09-17T23:50:00;6.20;;;1.30;;
23565;SDS011;22140;48.988;8.544;2022-09-17T23:55:01;6.53;;;0.80;;
